sensor_id;sensor_type;location;lat;lon;timestamp;temperature;humidity
44117;DHT22;29781;49.480;8.512;2022-10-22T00:00:23;15.70;99.90
44117;DHT22;29781;49.480;8.512;2022-10-22T00:02:48;15.70;99.90
44117;DHT22;29781;49.480;8.512;2022-10-22T00:05:14;15.70;99.90
44117;DHT22;29781;49.480;8.512;2022-10-22T00:07:40;15.70;99.90
44117;DHT22;29781;49.480;8.512;2022-10-22T00:10:06;15.70;99.90
44117;DHT22;29781;49.480;8.512;2022-10-22T00:12:32;15.70;99.90
44117;DHT22;29781;49.480;8.512;2022-10-22T00:14:58;15.70;99.90
44117;DHT22;29781;49.480;8.512;2022-10-22T00:17:24;15.80;99.90
44117;DHT22;29781;49.480;8.512;2022-10-22T00:19:49;15.80;99.90
44117;DHT22;29781;49.480;8.512;2022-10-22T00:22:15;15.90;99.90
44117;DHT22;29781;49.480;8.512;2022-10-22T00:24:41;15.90;99.90
44117;DHT22;29781;49.480;8.512;2022-10-22T00:27:08;16.00;99.90
44117;DHT22;29781;49.480;8.512;2022-10-22T00:29:34;16.00;99.90
44117;DHT22;29781;49.480;8.512;2022-10-22T00:32:00;16.00;99.90
44117;DHT22;29781;49.480;8.512;2022-10-22T00:34:26;16.00;99.90
44117;DHT22;29781;49.480;8.512;2022-10-22T00:36:52;16.00;99.90
44117;DHT22;29781;49.480;8.512;2022-10-22T00:39:21;16.00;99.90
44117;DHT22;29781;49.480;8.512;2022-10-22T00:41:48;16.00;99.90
44117;DHT22;29781;49.480;8.512;2022-10-22T00:47:18;16.00;99.90
44117;DHT22;29781;49.480;8.512;2022-10-22T00:49:44;15.90;99.90
44117;DHT22;29781;49.480;8.512;2022-10-22T00:52:11;15.90;99.90
44117;DHT22;29781;49.480;8.512;2022-10-22T00:54:37;15.90;99.90
44117;DHT22;29781;49.480;8.512;2022-10-22T00:57:04;15.90;99.90
44117;DHT22;29781;49.480;8.512;2022-10-22T00:59:30;15.90;99.90
44117;DHT22;29781;49.480;8.512;2022-10-22T01:01:57;15.90;99.90
44117;DHT22;29781;49.480;8.512;2022-10-22T01:04:22;15.90;99.90
44117;DHT22;29781;49.480;8.512;2022-10-22T01:06:48;15.90;99.90
44117;DHT22;29781;49.480;8.512;2022-10-22T01:09:53;15.80;99.90
44117;DHT22;29781;49.480;8.512;2022-10-22T01:23:40;15.80;99.90
44117;DHT22;29781;49.480;8.512;2022-10-22T01:25:57;15.80;99.90
44117;DHT22;29781;49.480;8.512;2022-10-22T01:31:07;15.70;99.90
44117;DHT22;29781;49.480;8.512;2022-10-22T01:33:34;15.60;99.90
44117;DHT22;29781;49.480;8.512;2022-10-22T01:36:01;15.60;99.90
44117;DHT22;29781;49.480;8.512;2022-10-22T01:38:28;15.70;99.90
44117;DHT22;29781;49.480;8.512;2022-10-22T01:40:55;15.60;99.90
44117;DHT22;29781;49.480;8.512;2022-10-22T01:43:21;15.60;99.90
44117;DHT22;29781;49.480;8.512;2022-10-22T01:45:50;15.60;99.90
44117;DHT22;29781;49.480;8.512;2022-10-22T01:53:41;15.50;99.90
44117;DHT22;29781;49.480;8.512;2022-10-22T01:56:15;15.50;99.90
44117;DHT22;29781;49.480;8.512;2022-10-22T01:58:55;15.50;99.90
44117;DHT22;29781;49.480;8.512;2022-10-22T02:06:43;15.50;99.90
44117;DHT22;29781;49.480;8.512;2022-10-22T02:09:12;15.40;99.90
44117;DHT22;29781;49.480;8.512;2022-10-22T02:11:40;15.40;99.90
44117;DHT22;29781;49.480;8.512;2022-10-22T02:14:07;15.40;99.90
44117;DHT22;29781;49.480;8.512;2022-10-22T02:16:40;15.40;99.90
44117;DHT22;29781;49.480;8.512;2022-10-22T02:19:34;15.40;99.90
44117;DHT22;29781;49.480;8.512;2022-10-22T02:22:02;15.40;99.90
44117;DHT22;29781;49.480;8.512;2022-10-22T02:24:29;15.40;99.90
44117;DHT22;29781;49.480;8.512;2022-10-22T02:27:00;15.40;99.90
44117;DHT22;29781;49.480;8.512;2022-10-22T02:29:34;15.40;99.90
44117;DHT22;29781;49.480;8.512;2022-10-22T02:32:04;15.40;99.90
44117;DHT22;29781;49.480;8.512;2022-10-22T02:34:31;15.40;99.90
44117;DHT22;29781;49.480;8.512;2022-10-22T02:36:58;15.40;99.90
44117;DHT22;29781;49.480;8.512;2022-10-22T02:39:25;15.40;99.90
44117;DHT22;29781;49.480;8.512;2022-10-22T02:41:51;15.30;99.90
44117;DHT22;29781;49.480;8.512;2022-10-22T02:44:20;15.30;99.90
44117;DHT22;29781;49.480;8.512;2022-10-22T02:46:46;15.30;99.90
44117;DHT22;29781;49.480;8.512;2022-10-22T02:49:12;15.30;99.90
44117;DHT22;29781;49.480;8.512;2022-10-22T02:51:38;15.30;99.90
44117;DHT22;29781;49.480;8.512;2022-10-22T02:54:03;15.30;99.90
44117;DHT22;29781;49.480;8.512;2022-10-22T02:56:29;15.30;99.90
44117;DHT22;29781;49.480;8.512;2022-10-22T02:58:55;15.30;99.90
44117;DHT22;29781;49.480;8.512;2022-10-22T03:01:20;15.30;99.90
44117;DHT22;29781;49.480;8.512;2022-10-22T03:03:46;15.30;99.90
44117;DHT22;29781;49.480;8.512;2022-10-22T03:06:12;15.30;99.90
44117;DHT22;29781;49.480;8.512;2022-10-22T03:08:37;15.30;99.90
44117;DHT22;29781;49.480;8.512;2022-10-22T03:11:03;15.20;99.90
44117;DHT22;29781;49.480;8.512;2022-10-22T03:13:28;15.20;99.90
44117;DHT22;29781;49.480;8.512;2022-10-22T03:15:54;15.20;99.90
44117;DHT22;29781;49.480;8.512;2022-10-22T03:18:20;15.20;99.90
44117;DHT22;29781;49.480;8.512;2022-10-22T03:20:45;15.20;99.90
44117;DHT22;29781;49.480;8.512;2022-10-22T03:23:13;15.20;99.90
44117;DHT22;29781;49.480;8.512;2022-10-22T03:25:42;15.10;99.90
44117;DHT22;29781;49.480;8.512;2022-10-22T03:28:09;15.10;99.90
44117;DHT22;29781;49.480;8.512;2022-10-22T03:30:36;15.20;99.90
44117;DHT22;29781;49.480;8.512;2022-10-22T03:33:01;15.20;99.90
44117;DHT22;29781;49.480;8.512;2022-10-22T03:35:27;15.20;99.90
44117;DHT22;29781;49.480;8.512;2022-10-22T03:37:53;15.20;99.90
44117;DHT22;29781;49.480;8.512;2022-10-22T03:40:19;15.20;99.90
44117;DHT22;29781;49.480;8.512;2022-10-22T03:42:45;15.20;99.90
44117;DHT22;29781;49.480;8.512;2022-10-22T03:45:11;15.20;99.90
44117;DHT22;29781;49.480;8.512;2022-10-22T03:47:36;15.20;99.90
44117;DHT22;29781;49.480;8.512;2022-10-22T03:50:03;15.20;99.90
44117;DHT22;29781;49.480;8.512;2022-10-22T03:52:37;15.20;99.90
44117;DHT22;29781;49.480;8.512;2022-10-22T03:55:04;15.20;99.90
44117;DHT22;29781;49.480;8.512;2022-10-22T03:57:30;15.20;99.90
44117;DHT22;29781;49.480;8.512;2022-10-22T03:59:55;15.20;99.90
44117;DHT22;29781;49.480;8.512;2022-10-22T04:02:21;15.20;99.90
44117;DHT22;29781;49.480;8.512;2022-10-22T04:04:47;15.20;99.90
44117;DHT22;29781;49.480;8.512;2022-10-22T04:07:12;15.20;99.90
44117;DHT22;29781;49.480;8.512;2022-10-22T04:09:38;15.10;99.90
44117;DHT22;29781;49.480;8.512;2022-10-22T04:12:04;15.10;99.90
44117;DHT22;29781;49.480;8.512;2022-10-22T04:14:31;15.10;99.90
44117;DHT22;29781;49.480;8.512;2022-10-22T04:16:56;15.10;99.90
44117;DHT22;29781;49.480;8.512;2022-10-22T04:19:22;15.10;99.90
44117;DHT22;29781;49.480;8.512;2022-10-22T04:21:47;15.10;99.90
44117;DHT22;29781;49.480;8.512;2022-10-22T04:24:13;15.10;99.90
44117;DHT22;29781;49.480;8.512;2022-10-22T04:26:39;15.00;99.90
44117;DHT22;29781;49.480;8.512;2022-10-22T04:29:07;15.00;99.90
44117;DHT22;29781;49.480;8.512;2022-10-22T04:31:32;15.00;99.90
44117;DHT22;29781;49.480;8.512;2022-10-22T04:33:59;15.10;99.90
44117;DHT22;29781;49.480;8.512;2022-10-22T04:36:26;15.10;99.90
44117;DHT22;29781;49.480;8.512;2022-10-22T04:38:58;15.10;99.90
44117;DHT22;29781;49.480;8.512;2022-10-22T04:41:26;15.10;99.90
44117;DHT22;29781;49.480;8.512;2022-10-22T04:43:53;15.10;99.90
44117;DHT22;29781;49.480;8.512;2022-10-22T04:46:20;15.10;99.90
44117;DHT22;29781;49.480;8.512;2022-10-22T04:48:46;15.10;99.90
44117;DHT22;29781;49.480;8.512;2022-10-22T04:51:14;15.10;99.90
44117;DHT22;29781;49.480;8.512;2022-10-22T04:53:40;15.00;99.90
44117;DHT22;29781;49.480;8.512;2022-10-22T04:58:46;15.00;99.90
44117;DHT22;29781;49.480;8.512;2022-10-22T05:01:25;15.00;99.90
44117;DHT22;29781;49.480;8.512;2022-10-22T05:03:52;15.00;99.90
44117;DHT22;29781;49.480;8.512;2022-10-22T05:06:19;15.00;99.90
44117;DHT22;29781;49.480;8.512;2022-10-22T05:08:50;15.00;99.90
44117;DHT22;29781;49.480;8.512;2022-10-22T05:11:20;14.90;99.90
44117;DHT22;29781;49.480;8.512;2022-10-22T05:13:47;14.90;99.90
44117;DHT22;29781;49.480;8.512;2022-10-22T05:16:13;14.90;99.90
44117;DHT22;29781;49.480;8.512;2022-10-22T05:18:40;14.90;99.90
44117;DHT22;29781;49.480;8.512;2022-10-22T05:21:15;14.90;99.90
44117;DHT22;29781;49.480;8.512;2022-10-22T05:23:41;14.90;99.90
44117;DHT22;29781;49.480;8.512;2022-10-22T05:26:09;14.90;99.90
44117;DHT22;29781;49.480;8.512;2022-10-22T05:28:35;14.90;99.90
44117;DHT22;29781;49.480;8.512;2022-10-22T05:31:01;14.90;99.90
44117;DHT22;29781;49.480;8.512;2022-10-22T05:33:28;14.90;99.90
44117;DHT22;29781;49.480;8.512;2022-10-22T05:35:54;14.80;99.90
44117;DHT22;29781;49.480;8.512;2022-10-22T05:38:21;14.80;99.90
44117;DHT22;29781;49.480;8.512;2022-10-22T05:40:47;14.70;99.90
44117;DHT22;29781;49.480;8.512;2022-10-22T05:43:12;14.70;99.90
44117;DHT22;29781;49.480;8.512;2022-10-22T05:45:39;14.70;99.90
44117;DHT22;29781;49.480;8.512;2022-10-22T05:48:06;14.60;99.90
44117;DHT22;29781;49.480;8.512;2022-10-22T05:50:35;14.60;99.90
44117;DHT22;29781;49.480;8.512;2022-10-22T05:53:02;14.50;99.90
44117;DHT22;29781;49.480;8.512;2022-10-22T05:55:28;14.40;99.90
44117;DHT22;29781;49.480;8.512;2022-10-22T05:57:54;14.30;99.90
44117;DHT22;29781;49.480;8.512;2022-10-22T06:00:19;14.30;99.90
44117;DHT22;29781;49.480;8.512;2022-10-22T06:02:49;14.30;99.90
44117;DHT22;29781;49.480;8.512;2022-10-22T06:05:14;14.30;99.90
44117;DHT22;29781;49.480;8.512;2022-10-22T06:07:40;14.30;99.90
44117;DHT22;29781;49.480;8.512;2022-10-22T06:10:12;14.30;99.90
44117;DHT22;29781;49.480;8.512;2022-10-22T06:12:38;14.30;99.90
44117;DHT22;29781;49.480;8.512;2022-10-22T06:15:04;14.30;99.90
44117;DHT22;29781;49.480;8.512;2022-10-22T06:17:30;14.30;99.90
44117;DHT22;29781;49.480;8.512;2022-10-22T06:19:56;14.30;99.90
44117;DHT22;29781;49.480;8.512;2022-10-22T06:22:21;14.30;99.90
44117;DHT22;29781;49.480;8.512;2022-10-22T06:24:47;14.40;99.90
44117;DHT22;29781;49.480;8.512;2022-10-22T06:27:12;14.40;99.90
44117;DHT22;29781;49.480;8.512;2022-10-22T06:29:38;14.40;99.90
44117;DHT22;29781;49.480;8.512;2022-10-22T06:32:04;14.40;99.90
44117;DHT22;29781;49.480;8.512;2022-10-22T06:34:29;14.40;99.90
44117;DHT22;29781;49.480;8.512;2022-10-22T06:36:55;14.40;99.90
44117;DHT22;29781;49.480;8.512;2022-10-22T06:39:21;14.40;99.90
44117;DHT22;29781;49.480;8.512;2022-10-22T06:41:46;14.50;99.90
44117;DHT22;29781;49.480;8.512;2022-10-22T06:44:16;14.40;99.90
44117;DHT22;29781;49.480;8.512;2022-10-22T06:46:42;14.50;99.90
44117;DHT22;29781;49.480;8.512;2022-10-22T06:49:12;14.50;99.90
44117;DHT22;29781;49.480;8.512;2022-10-22T06:51:38;14.40;99.90
44117;DHT22;29781;49.480;8.512;2022-10-22T06:54:04;14.40;99.90
44117;DHT22;29781;49.480;8.512;2022-10-22T06:56:29;14.40;99.90
44117;DHT22;29781;49.480;8.512;2022-10-22T06:58:57;14.40;99.90
44117;DHT22;29781;49.480;8.512;2022-10-22T07:01:30;14.40;99.90
44117;DHT22;29781;49.480;8.512;2022-10-22T07:03:56;14.40;99.90
44117;DHT22;29781;49.480;8.512;2022-10-22T07:06:23;14.40;99.90
44117;DHT22;29781;49.480;8.512;2022-10-22T07:08:49;14.50;99.90
44117;DHT22;29781;49.480;8.512;2022-10-22T07:11:24;14.50;99.90
44117;DHT22;29781;49.480;8.512;2022-10-22T07:13:52;14.60;99.90
44117;DHT22;29781;49.480;8.512;2022-10-22T07:16:18;14.60;99.90
44117;DHT22;29781;49.480;8.512;2022-10-22T07:18:44;14.70;99.90
44117;DHT22;29781;49.480;8.512;2022-10-22T07:21:11;14.70;99.90
44117;DHT22;29781;49.480;8.512;2022-10-22T07:23:37;14.80;99.90
44117;DHT22;29781;49.480;8.512;2022-10-22T07:26:05;14.80;99.90
44117;DHT22;29781;49.480;8.512;2022-10-22T07:28:32;14.90;99.90
44117;DHT22;29781;49.480;8.512;2022-10-22T07:30:59;14.90;99.90
44117;DHT22;29781;49.480;8.512;2022-10-22T07:33:25;14.90;99.90
44117;DHT22;29781;49.480;8.512;2022-10-22T07:35:57;15.00;99.90
44117;DHT22;29781;49.480;8.512;2022-10-22T07:38:23;15.00;99.90
44117;DHT22;29781;49.480;8.512;2022-10-22T07:40:48;15.10;99.90
44117;DHT22;29781;49.480;8.512;2022-10-22T07:43:14;15.20;99.90
44117;DHT22;29781;49.480;8.512;2022-10-22T07:45:40;15.20;99.90
44117;DHT22;29781;49.480;8.512;2022-10-22T07:48:06;15.30;99.90
44117;DHT22;29781;49.480;8.512;2022-10-22T07:50:31;15.30;99.90
44117;DHT22;29781;49.480;8.512;2022-10-22T07:52:57;15.40;99.90
44117;DHT22;29781;49.480;8.512;2022-10-22T07:55:23;15.40;99.90
44117;DHT22;29781;49.480;8.512;2022-10-22T07:57:49;15.50;99.90
44117;DHT22;29781;49.480;8.512;2022-10-22T08:00:14;15.40;99.90
44117;DHT22;29781;49.480;8.512;2022-10-22T08:02:40;15.40;99.90
44117;DHT22;29781;49.480;8.512;2022-10-22T08:05:06;15.50;99.90
44117;DHT22;29781;49.480;8.512;2022-10-22T08:07:32;15.50;99.90
44117;DHT22;29781;49.480;8.512;2022-10-22T08:09:58;15.60;99.90
44117;DHT22;29781;49.480;8.512;2022-10-22T08:12:24;15.80;99.90
44117;DHT22;29781;49.480;8.512;2022-10-22T08:14:49;15.90;99.90
44117;DHT22;29781;49.480;8.512;2022-10-22T08:17:15;15.90;99.90
44117;DHT22;29781;49.480;8.512;2022-10-22T08:19:41;16.00;99.90
44117;DHT22;29781;49.480;8.512;2022-10-22T08:22:06;16.20;99.90
44117;DHT22;29781;49.480;8.512;2022-10-22T08:24:32;16.30;99.90
44117;DHT22;29781;49.480;8.512;2022-10-22T08:26:58;16.50;99.90
44117;DHT22;29781;49.480;8.512;2022-10-22T08:29:24;16.50;99.90
44117;DHT22;29781;49.480;8.512;2022-10-22T08:31:52;16.60;99.90
44117;DHT22;29781;49.480;8.512;2022-10-22T08:34:19;16.70;99.90
44117;DHT22;29781;49.480;8.512;2022-10-22T08:36:45;16.90;99.90
44117;DHT22;29781;49.480;8.512;2022-10-22T08:39:11;17.00;99.90
44117;DHT22;29781;49.480;8.512;2022-10-22T08:47:51;18.00;99.90
44117;DHT22;29781;49.480;8.512;2022-10-22T08:50:23;18.30;99.90
44117;DHT22;29781;49.480;8.512;2022-10-22T08:52:55;18.40;99.90
44117;DHT22;29781;49.480;8.512;2022-10-22T08:55:22;18.30;99.90
44117;DHT22;29781;49.480;8.512;2022-10-22T08:58:02;18.20;99.90
44117;DHT22;29781;49.480;8.512;2022-10-22T09:00:54;18.30;99.90
44117;DHT22;29781;49.480;8.512;2022-10-22T09:06:17;18.20;99.90
44117;DHT22;29781;49.480;8.512;2022-10-22T09:08:45;18.60;99.90
44117;DHT22;29781;49.480;8.512;2022-10-22T09:11:27;18.60;99.90
44117;DHT22;29781;49.480;8.512;2022-10-22T09:13:55;18.20;99.90
44117;DHT22;29781;49.480;8.512;2022-10-22T09:19:17;17.70;99.90
44117;DHT22;29781;49.480;8.512;2022-10-22T09:22:26;17.60;99.90
44117;DHT22;29781;49.480;8.512;2022-10-22T09:27:40;17.60;99.90
44117;DHT22;29781;49.480;8.512;2022-10-22T09:30:09;17.60;99.90
44117;DHT22;29781;49.480;8.512;2022-10-22T09:32:38;17.70;99.90
44117;DHT22;29781;49.480;8.512;2022-10-22T09:35:03;18.10;99.90
44117;DHT22;29781;49.480;8.512;2022-10-22T09:37:34;18.70;99.90
44117;DHT22;29781;49.480;8.512;2022-10-22T09:40:03;19.20;99.90
44117;DHT22;29781;49.480;8.512;2022-10-22T09:42:30;19.40;99.90
44117;DHT22;29781;49.480;8.512;2022-10-22T09:44:58;19.60;99.90
44117;DHT22;29781;49.480;8.512;2022-10-22T09:47:37;19.80;99.90
44117;DHT22;29781;49.480;8.512;2022-10-22T09:52:33;19.20;99.90
44117;DHT22;29781;49.480;8.512;2022-10-22T09:55:01;18.90;99.90
44117;DHT22;29781;49.480;8.512;2022-10-22T09:57:28;18.70;99.90
44117;DHT22;29781;49.480;8.512;2022-10-22T09:59:54;18.60;99.90
44117;DHT22;29781;49.480;8.512;2022-10-22T10:02:28;18.50;99.90
44117;DHT22;29781;49.480;8.512;2022-10-22T10:04:56;18.60;99.90
44117;DHT22;29781;49.480;8.512;2022-10-22T10:07:25;18.60;99.90
44117;DHT22;29781;49.480;8.512;2022-10-22T10:09:52;18.70;99.90
44117;DHT22;29781;49.480;8.512;2022-10-22T10:21:03;20.20;99.90
44117;DHT22;29781;49.480;8.512;2022-10-22T10:29:25;23.70;99.90
44117;DHT22;29781;49.480;8.512;2022-10-22T10:32:17;22.80;99.90
44117;DHT22;29781;49.480;8.512;2022-10-22T10:49:13;20.30;99.90
44117;DHT22;29781;49.480;8.512;2022-10-22T10:52:20;19.80;99.90
44117;DHT22;29781;49.480;8.512;2022-10-22T10:55:14;19.70;99.90
44117;DHT22;29781;49.480;8.512;2022-10-22T10:58:29;19.80;99.90
44117;DHT22;29781;49.480;8.512;2022-10-22T11:01:00;20.60;99.90
44117;DHT22;29781;49.480;8.512;2022-10-22T11:06:13;23.70;99.90
44117;DHT22;29781;49.480;8.512;2022-10-22T11:08:44;24.50;99.90
44117;DHT22;29781;49.480;8.512;2022-10-22T11:11:29;24.80;99.90
44117;DHT22;29781;49.480;8.512;2022-10-22T11:19:06;22.20;99.90
44117;DHT22;29781;49.480;8.512;2022-10-22T11:21:44;21.50;99.90
44117;DHT22;29781;49.480;8.512;2022-10-22T11:24:36;21.00;99.90
44117;DHT22;29781;49.480;8.512;2022-10-22T11:30:01;20.50;99.90
44117;DHT22;29781;49.480;8.512;2022-10-22T11:32:28;20.70;99.90
44117;DHT22;29781;49.480;8.512;2022-10-22T11:34:57;20.50;99.90
44117;DHT22;29781;49.480;8.512;2022-10-22T11:37:25;20.80;99.90
44117;DHT22;29781;49.480;8.512;2022-10-22T11:39:57;20.70;99.90
44117;DHT22;29781;49.480;8.512;2022-10-22T11:42:40;20.70;99.90
44117;DHT22;29781;49.480;8.512;2022-10-22T11:53:17;20.20;99.90
44117;DHT22;29781;49.480;8.512;2022-10-22T11:55:45;20.00;99.90
44117;DHT22;29781;49.480;8.512;2022-10-22T11:58:39;19.90;99.90
44117;DHT22;29781;49.480;8.512;2022-10-22T12:09:02;19.50;99.90
44117;DHT22;29781;49.480;8.512;2022-10-22T12:11:38;19.60;99.90
44117;DHT22;29781;49.480;8.512;2022-10-22T12:14:23;19.60;99.90
44117;DHT22;29781;49.480;8.512;2022-10-22T12:21:52;19.70;99.90
44117;DHT22;29781;49.480;8.512;2022-10-22T12:24:21;19.70;99.90
44117;DHT22;29781;49.480;8.512;2022-10-22T12:26:47;19.70;99.90
44117;DHT22;29781;49.480;8.512;2022-10-22T12:29:18;19.80;99.90
44117;DHT22;29781;49.480;8.512;2022-10-22T12:31:46;19.80;99.90
44117;DHT22;29781;49.480;8.512;2022-10-22T12:34:16;19.70;99.90
44117;DHT22;29781;49.480;8.512;2022-10-22T12:36:43;19.70;99.90
44117;DHT22;29781;49.480;8.512;2022-10-22T12:39:17;19.70;99.90
44117;DHT22;29781;49.480;8.512;2022-10-22T12:41:43;19.70;99.90
44117;DHT22;29781;49.480;8.512;2022-10-22T12:44:12;19.70;99.90
44117;DHT22;29781;49.480;8.512;2022-10-22T12:46:38;19.80;99.90
44117;DHT22;29781;49.480;8.512;2022-10-22T12:49:19;19.80;99.90
44117;DHT22;29781;49.480;8.512;2022-10-22T12:51:46;19.80;99.90
44117;DHT22;29781;49.480;8.512;2022-10-22T12:54:32;19.80;99.90
44117;DHT22;29781;49.480;8.512;2022-10-22T12:56:59;19.70;99.90
44117;DHT22;29781;49.480;8.512;2022-10-22T12:59:33;19.70;99.90
44117;DHT22;29781;49.480;8.512;2022-10-22T13:02:00;19.70;99.90
44117;DHT22;29781;49.480;8.512;2022-10-22T13:04:37;19.80;99.90
44117;DHT22;29781;49.480;8.512;2022-10-22T13:09:59;19.90;99.90
44117;DHT22;29781;49.480;8.512;2022-10-22T13:12:27;20.00;99.90
44117;DHT22;29781;49.480;8.512;2022-10-22T13:15:19;20.00;99.90
44117;DHT22;29781;49.480;8.512;2022-10-22T13:17:46;20.00;99.90
44117;DHT22;29781;49.480;8.512;2022-10-22T13:20:21;20.00;99.90
44117;DHT22;29781;49.480;8.512;2022-10-22T13:22:56;20.00;99.90
44117;DHT22;29781;49.480;8.512;2022-10-22T13:25:32;20.00;99.90
44117;DHT22;29781;49.480;8.512;2022-10-22T13:28:19;20.00;99.90
44117;DHT22;29781;49.480;8.512;2022-10-22T13:31:10;20.00;99.90
44117;DHT22;29781;49.480;8.512;2022-10-22T13:33:42;20.00;99.90
44117;DHT22;29781;49.480;8.512;2022-10-22T13:36:13;19.90;99.90
44117;DHT22;29781;49.480;8.512;2022-10-22T13:38:39;19.80;99.90
44117;DHT22;29781;49.480;8.512;2022-10-22T13:41:27;19.80;99.90
44117;DHT22;29781;49.480;8.512;2022-10-22T13:43:55;19.80;99.90
44117;DHT22;29781;49.480;8.512;2022-10-22T13:46:22;19.80;99.90
44117;DHT22;29781;49.480;8.512;2022-10-22T13:48:50;19.80;99.90
44117;DHT22;29781;49.480;8.512;2022-10-22T13:51:24;19.80;99.90
44117;DHT22;29781;49.480;8.512;2022-10-22T13:53:52;19.70;99.90
44117;DHT22;29781;49.480;8.512;2022-10-22T13:56:20;19.70;99.90
44117;DHT22;29781;49.480;8.512;2022-10-22T13:58:47;19.70;99.90
44117;DHT22;29781;49.480;8.512;2022-10-22T14:01:28;19.80;99.90
44117;DHT22;29781;49.480;8.512;2022-10-22T14:03:56;19.70;99.90
44117;DHT22;29781;49.480;8.512;2022-10-22T14:06:23;19.70;99.90
44117;DHT22;29781;49.480;8.512;2022-10-22T14:08:53;19.70;99.90
44117;DHT22;29781;49.480;8.512;2022-10-22T14:11:20;19.70;99.90
44117;DHT22;29781;49.480;8.512;2022-10-22T14:13:46;19.70;99.90
44117;DHT22;29781;49.480;8.512;2022-10-22T14:16:22;19.70;99.90
44117;DHT22;29781;49.480;8.512;2022-10-22T14:18:49;19.70;99.90
44117;DHT22;29781;49.480;8.512;2022-10-22T14:21:16;19.80;99.90
44117;DHT22;29781;49.480;8.512;2022-10-22T14:23:44;19.80;99.90
44117;DHT22;29781;49.480;8.512;2022-10-22T14:26:23;19.80;99.90
44117;DHT22;29781;49.480;8.512;2022-10-22T14:28:49;19.80;99.90
44117;DHT22;29781;49.480;8.512;2022-10-22T14:31:15;19.80;99.90
44117;DHT22;29781;49.480;8.512;2022-10-22T14:33:41;19.70;99.90
44117;DHT22;29781;49.480;8.512;2022-10-22T14:36:08;19.80;99.90
44117;DHT22;29781;49.480;8.512;2022-10-22T14:38:34;19.70;99.90
44117;DHT22;29781;49.480;8.512;2022-10-22T14:41:00;19.70;99.90
44117;DHT22;29781;49.480;8.512;2022-10-22T14:43:28;19.70;99.90
44117;DHT22;29781;49.480;8.512;2022-10-22T14:45:56;19.80;99.90
44117;DHT22;29781;49.480;8.512;2022-10-22T14:48:22;19.80;99.90
44117;DHT22;29781;49.480;8.512;2022-10-22T14:50:47;19.90;99.90
44117;DHT22;29781;49.480;8.512;2022-10-22T14:53:14;20.00;99.90
44117;DHT22;29781;49.480;8.512;2022-10-22T14:55:42;20.10;99.90
44117;DHT22;29781;49.480;8.512;2022-10-22T14:58:09;20.10;99.90
44117;DHT22;29781;49.480;8.512;2022-10-22T15:00:35;20.10;99.90
44117;DHT22;29781;49.480;8.512;2022-10-22T15:03:02;20.10;99.90
44117;DHT22;29781;49.480;8.512;2022-10-22T15:05:28;20.10;99.90
44117;DHT22;29781;49.480;8.512;2022-10-22T15:07:53;20.10;99.90
44117;DHT22;29781;49.480;8.512;2022-10-22T15:10:19;20.10;99.90
44117;DHT22;29781;49.480;8.512;2022-10-22T15:12:45;20.10;99.90
44117;DHT22;29781;49.480;8.512;2022-10-22T15:15:11;20.00;99.90
44117;DHT22;29781;49.480;8.512;2022-10-22T15:17:37;20.00;99.90
44117;DHT22;29781;49.480;8.512;2022-10-22T15:20:04;20.00;99.90
44117;DHT22;29781;49.480;8.512;2022-10-22T15:22:30;20.00;99.90
44117;DHT22;29781;49.480;8.512;2022-10-22T15:25:00;20.00;99.90
44117;DHT22;29781;49.480;8.512;2022-10-22T15:27:26;20.00;99.90
44117;DHT22;29781;49.480;8.512;2022-10-22T15:29:51;19.90;99.90
44117;DHT22;29781;49.480;8.512;2022-10-22T15:32:17;19.90;99.90
44117;DHT22;29781;49.480;8.512;2022-10-22T15:34:43;19.90;99.90
44117;DHT22;29781;49.480;8.512;2022-10-22T15:37:10;19.80;99.90
44117;DHT22;29781;49.480;8.512;2022-10-22T15:39:40;19.80;99.90
44117;DHT22;29781;49.480;8.512;2022-10-22T15:42:07;19.80;99.90
44117;DHT22;29781;49.480;8.512;2022-10-22T15:44:34;19.80;99.90
44117;DHT22;29781;49.480;8.512;2022-10-22T15:47:02;19.80;99.90
44117;DHT22;29781;49.480;8.512;2022-10-22T15:49:28;19.70;99.90
44117;DHT22;29781;49.480;8.512;2022-10-22T15:51:55;19.70;99.90
44117;DHT22;29781;49.480;8.512;2022-10-22T15:54:24;19.60;99.90
44117;DHT22;29781;49.480;8.512;2022-10-22T15:56:50;19.60;99.90
44117;DHT22;29781;49.480;8.512;2022-10-22T15:59:16;19.50;99.90
44117;DHT22;29781;49.480;8.512;2022-10-22T16:01:43;19.50;99.90
44117;DHT22;29781;49.480;8.512;2022-10-22T16:04:09;19.50;99.90
44117;DHT22;29781;49.480;8.512;2022-10-22T16:06:43;19.50;99.90
44117;DHT22;29781;49.480;8.512;2022-10-22T16:09:12;19.50;99.90
44117;DHT22;29781;49.480;8.512;2022-10-22T16:11:38;19.40;99.90
44117;DHT22;29781;49.480;8.512;2022-10-22T16:14:04;19.40;99.90
44117;DHT22;29781;49.480;8.512;2022-10-22T16:16:33;19.40;99.90
44117;DHT22;29781;49.480;8.512;2022-10-22T16:18:59;19.40;99.90
44117;DHT22;29781;49.480;8.512;2022-10-22T16:21:25;19.40;99.90
44117;DHT22;29781;49.480;8.512;2022-10-22T16:23:51;19.30;99.90
44117;DHT22;29781;49.480;8.512;2022-10-22T16:26:17;19.30;99.90
44117;DHT22;29781;49.480;8.512;2022-10-22T16:28:44;19.20;99.90
44117;DHT22;29781;49.480;8.512;2022-10-22T16:31:12;19.20;99.90
44117;DHT22;29781;49.480;8.512;2022-10-22T16:33:39;19.10;99.90
44117;DHT22;29781;49.480;8.512;2022-10-22T16:36:07;19.10;99.90
44117;DHT22;29781;49.480;8.512;2022-10-22T16:38:33;19.10;99.90
44117;DHT22;29781;49.480;8.512;2022-10-22T16:41:25;19.00;99.90
44117;DHT22;29781;49.480;8.512;2022-10-22T16:43:59;18.90;99.90
44117;DHT22;29781;49.480;8.512;2022-10-22T16:46:26;18.90;99.90
44117;DHT22;29781;49.480;8.512;2022-10-22T16:48:52;18.90;99.90
44117;DHT22;29781;49.480;8.512;2022-10-22T16:51:23;18.90;99.90
44117;DHT22;29781;49.480;8.512;2022-10-22T16:53:53;18.80;99.90
44117;DHT22;29781;49.480;8.512;2022-10-22T16:56:19;18.80;99.90
44117;DHT22;29781;49.480;8.512;2022-10-22T16:58:48;18.70;99.90
44117;DHT22;29781;49.480;8.512;2022-10-22T17:01:15;18.70;99.90
44117;DHT22;29781;49.480;8.512;2022-10-22T17:03:40;18.70;99.90
44117;DHT22;29781;49.480;8.512;2022-10-22T17:06:07;18.70;99.90
44117;DHT22;29781;49.480;8.512;2022-10-22T17:08:37;18.50;99.90
44117;DHT22;29781;49.480;8.512;2022-10-22T17:13:31;18.40;99.90
44117;DHT22;29781;49.480;8.512;2022-10-22T17:16:04;18.40;99.90
44117;DHT22;29781;49.480;8.512;2022-10-22T17:18:31;18.40;99.90
44117;DHT22;29781;49.480;8.512;2022-10-22T17:20:56;18.40;99.90
44117;DHT22;29781;49.480;8.512;2022-10-22T17:23:26;18.30;99.90
44117;DHT22;29781;49.480;8.512;2022-10-22T17:25:59;18.30;99.90
44117;DHT22;29781;49.480;8.512;2022-10-22T17:28:25;18.30;99.90
44117;DHT22;29781;49.480;8.512;2022-10-22T17:33:45;18.10;99.90
44117;DHT22;29781;49.480;8.512;2022-10-22T17:36:11;17.70;99.90